Time;durP1;ratioP1;P1;durP2;ratioP2;P2;SDS_P1;SDS_P2;PMS_P1;PMS_P2;Temp;Humidity;BMP_temperature;BMP_pressure;BME280_temperature;BME280_humidity;BME280_pressure;Samples;Min_cycle;Max_cycle;Signal;HPM_P1;HPM_P2
2023/04/27 00:02:21;;;;;;;15.80;5.43;;;;;;;;;;6164266;23;20077;-94
2023/04/27 00:04:47;;;;;;;22.85;5.50;;;;;;;;;;6188361;23;20013;-95
2023/04/27 00:07:13;;;;;;;11.75;5.03;;;;;;;;;;6162337;23;20024;-94
2023/04/27 00:09:39;;;;;;;10.25;4.78;;;;;;;;;;6165037;23;20009;-94
2023/04/27 00:12:09;;;;;;;10.60;4.93;;;;;;;;;;6162458;23;20013;-95
2023/04/27 00:14:38;;;;;;;6.97;3.75;;;;;;;;;;6193441;22;20103;-95
2023/04/27 00:17:04;;;;;;;9.10;3.92;;;;;;;;;;6169081;23;20008;-95
2023/04/27 00:19:31;;;;;;;20.20;4.97;;;;;;;;;;6169126;23;20059;-94
2023/04/27 00:21:58;;;;;;;6.72;3.05;;;;;;;;;;6194792;23;20005;-93
2023/04/27 00:24:28;;;;;;;6.57;4.00;;;;;;;;;;6172589;23;20362;-94
2023/04/27 00:26:54;;;;;;;8.38;4.43;;;;;;;;;;6174510;23;20008;-93
2023/04/27 00:29:20;;;;;;;10.50;3.45;;;;;;;;;;6170718;23;20408;-94
2023/04/27 00:31:50;;;;;;;11.13;4.00;;;;;;;;;;6169351;23;20024;-94
2023/04/27 00:34:20;;;;;;;5.72;3.50;;;;;;;;;;6171810;23;20020;-92
2023/04/27 00:36:47;;;;;;;8.70;3.38;;;;;;;;;;6197782;23;20092;-93
2023/04/27 00:39:17;;;;;;;10.65;3.42;;;;;;;;;;6172693;23;20458;-93
2023/04/27 00:41:43;;;;;;;8.00;3.40;;;;;;;;;;6193786;23;20009;-93
2023/04/27 00:44:09;;;;;;;13.35;3.20;;;;;;;;;;6192763;23;20020;-92
2023/04/27 00:49:35;;;;;;;8.75;2.90;;;;;;;;;;6051545;23;20019;-93
2023/04/27 00:52:20;;;;;;;10.43;3.17;;;;;;;;;;6192328;23;20019;-93
2023/04/27 00:54:49;;;;;;;14.77;3.20;;;;;;;;;;6192327;23;20378;-93
2023/04/27 00:57:16;;;;;;;6.00;2.90;;;;;;;;;;6193125;23;20011;-93
2023/04/27 00:59:45;;;;;;;10.30;3.47;;;;;;;;;;6169559;23;20004;-93
2023/04/27 01:02:18;;;;;;;5.07;3.30;;;;;;;;;;6192694;23;20000;-93
2023/04/27 01:04:44;;;;;;;11.43;3.35;;;;;;;;;;6194618;23;20009;-93
2023/04/27 01:07:15;;;;;;;7.15;2.92;;;;;;;;;;6166989;23;20016;-93
2023/04/27 01:09:41;;;;;;;7.90;3.13;;;;;;;;;;6169510;23;20072;-93
2023/04/27 01:12:07;;;;;;;7.53;3.05;;;;;;;;;;6169645;23;20013;-94
2023/04/27 01:14:42;;;;;;;8.23;3.40;;;;;;;;;;6170815;22;20067;-94
2023/04/27 01:17:09;;;;;;;6.60;3.13;;;;;;;;;;6187000;23;20103;-94
2023/04/27 01:19:39;;;;;;;5.18;3.08;;;;;;;;;;6190333;23;20515;-95
2023/04/27 01:22:08;;;;;;;6.28;3.50;;;;;;;;;;6164506;23;20012;-94
2023/04/27 01:24:35;;;;;;;7.13;3.65;;;;;;;;;;6189527;23;20005;-95
2023/04/27 01:27:02;;;;;;;7.90;2.90;;;;;;;;;;6189007;23;20052;-95
2023/04/27 01:29:32;;;;;;;10.27;4.05;;;;;;;;;;6166082;23;20271;-95
2023/04/27 01:32:05;;;;;;;8.60;3.35;;;;;;;;;;6164999;23;20028;-95
2023/04/27 01:34:31;;;;;;;5.70;3.10;;;;;;;;;;6166597;23;20020;-95
2023/04/27 01:37:00;;;;;;;9.88;4.03;;;;;;;;;;6190800;23;20005;-96
2023/04/27 01:39:27;;;;;;;7.97;3.97;;;;;;;;;;6165008;23;20088;-94
2023/04/27 01:41:53;;;;;;;11.48;4.13;;;;;;;;;;6163354;23;20015;-94
2023/04/27 01:44:23;;;;;;;11.38;3.97;;;;;;;;;;6187691;23;20072;-95
2023/04/27 01:46:55;;;;;;;8.55;3.70;;;;;;;;;;6167496;23;20009;-95
2023/04/27 01:49:21;;;;;;;9.57;4.65;;;;;;;;;;6189192;23;20414;-95
2023/04/27 01:51:47;;;;;;;8.02;4.05;;;;;;;;;;6163534;23;20355;-95
2023/04/27 01:54:14;;;;;;;8.38;3.53;;;;;;;;;;6164930;23;20207;-94
2023/04/27 01:56:42;;;;;;;9.43;4.35;;;;;;;;;;6163307;23;20092;-96
2023/04/27 01:59:11;;;;;;;9.85;4.25;;;;;;;;;;6167642;23;20063;-95
2023/04/27 02:01:37;;;;;;;8.65;3.65;;;;;;;;;;6165639;23;20021;-94
2023/04/27 02:04:03;;;;;;;7.93;3.85;;;;;;;;;;6191812;23;20340;-94
2023/04/27 02:06:40;;;;;;;10.88;4.40;;;;;;;;;;6192403;23;20012;-93
2023/04/27 02:09:06;;;;;;;14.00;4.63;;;;;;;;;;6188618;23;20017;-94
2023/04/27 02:11:32;;;;;;;8.90;4.53;;;;;;;;;;6165646;23;20106;-95
2023/04/27 02:13:59;;;;;;;16.08;5.25;;;;;;;;;;6184738;22;20016;-95
2023/04/27 02:16:27;;;;;;;10.70;5.03;;;;;;;;;;6171938;23;20017;-95
2023/04/27 02:18:53;;;;;;;10.48;4.35;;;;;;;;;;6195144;23;20354;-95
2023/04/27 02:21:24;;;;;;;11.85;4.80;;;;;;;;;;6170204;23;20024;-95
2023/04/27 02:23:50;;;;;;;18.98;5.50;;;;;;;;;;6195526;23;20465;-95
2023/04/27 02:26:18;;;;;;;17.75;5.45;;;;;;;;;;6196661;23;20024;-95
2023/04/27 02:28:45;;;;;;;13.43;5.60;;;;;;;;;;6223433;23;20004;-96
2023/04/27 02:31:12;;;;;;;12.43;5.13;;;;;;;;;;6194643;23;20004;-95
2023/04/27 02:33:38;;;;;;;9.13;5.45;;;;;;;;;;6204356;23;20028;-93
2023/04/27 02:36:08;;;;;;;13.18;5.45;;;;;;;;;;6186578;23;20122;-96
2023/04/27 02:38:40;;;;;;;10.77;4.53;;;;;;;;;;6212390;23;20000;-95
2023/04/27 02:41:06;;;;;;;10.57;5.13;;;;;;;;;;6210492;23;20030;-95
2023/04/27 02:43:32;;;;;;;14.60;4.65;;;;;;;;;;6204985;23;20009;-94
2023/04/27 02:46:02;;;;;;;12.55;5.35;;;;;;;;;;6183288;23;20064;-95
2023/04/27 02:48:29;;;;;;;13.10;6.05;;;;;;;;;;6208088;23;20008;-94
2023/04/27 02:50:56;;;;;;;11.07;5.18;;;;;;;;;;6201225;23;20000;-94
2023/04/27 02:53:22;;;;;;;13.60;6.40;;;;;;;;;;6173981;23;20039;-95
2023/04/27 02:55:49;;;;;;;13.18;5.80;;;;;;;;;;6197642;23;20008;-95
2023/04/27 02:58:15;;;;;;;13.98;5.93;;;;;;;;;;6195322;23;20008;-95
2023/04/27 03:00:42;;;;;;;17.95;6.47;;;;;;;;;;6170749;23;20004;-96
2023/04/27 03:03:09;;;;;;;18.13;6.25;;;;;;;;;;6172385;23;20090;-95
2023/04/27 03:05:36;;;;;;;14.43;5.85;;;;;;;;;;6172210;23;20009;-95
2023/04/27 03:08:02;;;;;;;13.65;6.35;;;;;;;;;;6196167;23;20009;-95
2023/04/27 03:10:28;;;;;;;17.10;6.75;;;;;;;;;;6195200;23;20170;-95
2023/04/27 03:12:55;;;;;;;13.02;5.95;;;;;;;;;;6198918;22;20193;-94
2023/04/27 03:15:21;;;;;;;22.20;7.80;;;;;;;;;;6141250;23;20052;-95
2023/04/27 03:17:52;;;;;;;17.13;6.93;;;;;;;;;;6192492;23;20020;-96
2023/04/27 03:20:24;;;;;;;15.30;7.00;;;;;;;;;;6144173;23;20013;-95
2023/04/27 03:23:16;;;;;;;22.30;7.47;;;;;;;;;;6143427;23;20428;-95
2023/04/27 03:25:43;;;;;;;15.02;6.60;;;;;;;;;;6152496;23;20013;-94
2023/04/27 03:28:10;;;;;;;17.50;6.25;;;;;;;;;;6140535;23;20009;-94
2023/04/27 03:30:39;;;;;;;17.63;7.55;;;;;;;;;;6166779;23;20482;-94
2023/04/27 03:33:06;;;;;;;16.50;6.80;;;;;;;;;;6191023;23;20009;-94
2023/04/27 03:35:33;;;;;;;15.80;6.88;;;;;;;;;;6193432;23;20463;-94
2023/04/27 03:37:59;;;;;;;15.00;6.30;;;;;;;;;;6191828;23;20032;-95
2023/04/27 03:40:26;;;;;;;19.63;7.97;;;;;;;;;;6138369;23;20005;-94
2023/04/27 03:42:52;;;;;;;16.48;8.38;;;;;;;;;;6190638;23;20009;-95
2023/04/27 03:45:21;;;;;;;17.65;7.13;;;;;;;;;;6165266;23;20459;-94
2023/04/27 03:47:47;;;;;;;20.05;8.07;;;;;;;;;;6188816;23;20004;-94
2023/04/27 03:50:13;;;;;;;18.98;8.93;;;;;;;;;;6140159;23;20462;-94
2023/04/27 03:52:40;;;;;;;19.55;9.27;;;;;;;;;;6140878;23;20052;-95
2023/04/27 03:55:06;;;;;;;26.75;9.32;;;;;;;;;;6141538;23;20005;-95
2023/04/27 03:57:33;;;;;;;24.65;9.48;;;;;;;;;;6188523;23;20009;-95
2023/04/27 04:00:06;;;;;;;19.95;9.32;;;;;;;;;;6141040;23;20013;-94
2023/04/27 04:02:32;;;;;;;20.20;8.45;;;;;;;;;;6141938;23;20017;-94
2023/04/27 04:04:59;;;;;;;19.38;8.55;;;;;;;;;;6190227;23;20068;-93
2023/04/27 04:07:25;;;;;;;23.10;8.63;;;;;;;;;;6141122;23;20021;-94
2023/04/27 04:09:54;;;;;;;19.92;8.30;;;;;;;;;;6189162;23;20013;-95
2023/04/27 04:12:20;;;;;;;22.63;8.85;;;;;;;;;;6142313;23;20017;-94
2023/04/27 04:14:55;;;;;;;24.00;9.05;;;;;;;;;;6150728;22;20031;-94
2023/04/27 04:17:21;;;;;;;22.40;8.52;;;;;;;;;;6165244;23;20017;-95
2023/04/27 04:19:48;;;;;;;21.40;8.43;;;;;;;;;;6165341;23;20012;-95
2023/04/27 04:22:14;;;;;;;19.25;7.65;;;;;;;;;;6166249;23;20013;-94
2023/04/27 04:24:40;;;;;;;20.15;8.35;;;;;;;;;;6191945;23;20016;-95
2023/04/27 04:27:07;;;;;;;17.65;8.13;;;;;;;;;;6166495;23;20012;-94
2023/04/27 04:29:33;;;;;;;20.08;8.10;;;;;;;;;;6165638;23;20013;-95
2023/04/27 04:32:00;;;;;;;19.70;8.25;;;;;;;;;;6191275;23;20036;-95
2023/04/27 04:34:33;;;;;;;24.90;8.93;;;;;;;;;;6191433;23;20063;-94
2023/04/27 04:37:00;;;;;;;18.95;8.68;;;;;;;;;;6189791;23;20012;-94
2023/04/27 04:39:31;;;;;;;19.35;9.35;;;;;;;;;;6190349;23;20008;-94
2023/04/27 04:41:57;;;;;;;22.80;8.80;;;;;;;;;;6191586;23;19997;-94
2023/04/27 04:44:27;;;;;;;19.45;8.90;;;;;;;;;;6191476;23;20005;-93
2023/04/27 04:46:54;;;;;;;19.48;8.75;;;;;;;;;;6163273;23;20016;-93
2023/04/27 04:49:20;;;;;;;20.92;9.32;;;;;;;;;;6166039;23;20019;-93
2023/04/27 04:51:46;;;;;;;21.48;9.77;;;;;;;;;;6167138;23;20433;-94
2023/04/27 04:54:13;;;;;;;19.17;8.15;;;;;;;;;;6168607;23;20108;-94
2023/04/27 04:56:39;;;;;;;25.10;10.23;;;;;;;;;;6173747;23;20009;-93
2023/04/27 04:59:06;;;;;;;23.50;9.95;;;;;;;;;;6172073;23;20024;-94
2023/04/27 05:01:32;;;;;;;22.90;9.50;;;;;;;;;;6196686;23;20005;-92
2023/04/27 05:04:00;;;;;;;23.25;9.82;;;;;;;;;;6196209;23;20232;-94
2023/04/27 05:06:26;;;;;;;22.42;11.02;;;;;;;;;;6172226;23;20013;-93
2023/04/27 05:08:53;;;;;;;24.55;10.32;;;;;;;;;;6173103;23;19989;-94
2023/04/27 05:11:19;;;;;;;33.55;11.73;;;;;;;;;;6172181;23;20009;-94
2023/04/27 05:13:45;;;;;;;25.38;11.27;;;;;;;;;;6178314;22;20009;-94
2023/04/27 05:16:21;;;;;;;25.55;10.82;;;;;;;;;;6228292;23;20089;-94
2023/04/27 05:18:48;;;;;;;20.10;9.70;;;;;;;;;;6201919;23;20012;-92
2023/04/27 05:21:19;;;;;;;25.30;9.77;;;;;;;;;;6176077;23;20084;-93
2023/04/27 05:23:46;;;;;;;22.90;9.13;;;;;;;;;;6200533;23;20060;-92
2023/04/27 05:26:16;;;;;;;19.73;8.93;;;;;;;;;;6200651;23;20012;-93
2023/04/27 05:28:43;;;;;;;27.80;8.75;;;;;;;;;;6177513;23;20028;-92
2023/04/27 05:31:09;;;;;;;21.25;8.65;;;;;;;;;;6176273;23;20179;-94
2023/04/27 05:33:35;;;;;;;19.20;8.18;;;;;;;;;;6203615;23;20009;-93
2023/04/27 05:36:11;;;;;;;12.60;6.55;;;;;;;;;;6202673;23;20016;-94
2023/04/27 05:38:39;;;;;;;20.92;6.72;;;;;;;;;;6203235;23;20076;-94
2023/04/27 05:41:08;;;;;;;15.27;6.95;;;;;;;;;;6179490;23;20131;-94
2023/04/27 05:43:36;;;;;;;25.13;7.95;;;;;;;;;;6201339;23;20005;-93
2023/04/27 05:48:59;;;;;;;20.75;8.38;;;;;;;;;;6209880;23;20016;-93
2023/04/27 05:51:32;;;;;;;20.52;6.85;;;;;;;;;;6181273;23;20016;-93
2023/04/27 05:54:00;;;;;;;18.35;7.05;;;;;;;;;;6231240;23;19989;-94
2023/04/27 05:56:26;;;;;;;25.33;6.97;;;;;;;;;;6178895;23;20028;-94
2023/04/27 05:58:53;;;;;;;18.70;6.70;;;;;;;;;;6177951;23;20012;-94
2023/04/27 06:01:20;;;;;;;13.18;5.38;;;;;;;;;;6178761;23;19996;-93
2023/04/27 06:03:46;;;;;;;20.13;5.75;;;;;;;;;;6178406;23;20068;-95
2023/04/27 06:06:12;;;;;;;31.25;5.72;;;;;;;;;;6203544;23;20009;-93
2023/04/27 06:08:38;;;;;;;16.73;7.10;;;;;;;;;;6209422;23;20056;-94
2023/04/27 06:11:12;;;;;;;22.90;8.68;;;;;;;;;;6187084;23;20047;-94
2023/04/27 06:13:45;;;;;;;22.65;7.95;;;;;;;;;;6187298;22;20005;-93
2023/04/27 06:16:19;;;;;;;24.48;8.95;;;;;;;;;;6208869;23;20019;-93
2023/04/27 06:18:48;;;;;;;18.95;6.40;;;;;;;;;;6181502;23;20081;-94
2023/04/27 06:21:15;;;;;;;17.77;6.40;;;;;;;;;;6180295;23;20009;-96
2023/04/27 06:23:41;;;;;;;15.95;6.68;;;;;;;;;;6177827;23;20005;-95
2023/04/27 06:26:07;;;;;;;11.18;5.65;;;;;;;;;;6174360;23;20012;-94
2023/04/27 06:28:36;;;;;;;16.63;5.93;;;;;;;;;;6174118;23;20033;-94
2023/04/27 06:31:05;;;;;;;11.18;5.05;;;;;;;;;;6176308;23;20043;-95
2023/04/27 06:33:32;;;;;;;10.45;5.00;;;;;;;;;;6175180;23;20013;-95
2023/04/27 06:35:58;;;;;;;10.65;5.07;;;;;;;;;;6178297;23;20017;-95
2023/04/27 06:38:24;;;;;;;9.27;4.32;;;;;;;;;;6176060;23;20024;-94
2023/04/27 06:40:51;;;;;;;8.98;4.47;;;;;;;;;;6202108;23;20043;-94
2023/04/27 06:43:17;;;;;;;10.15;3.92;;;;;;;;;;6199438;23;20035;-95
2023/04/27 06:45:43;;;;;;;10.00;4.07;;;;;;;;;;6196894;23;20032;-95
2023/04/27 06:48:09;;;;;;;7.80;3.22;;;;;;;;;;6175136;23;20035;-94
2023/04/27 06:50:36;;;;;;;9.98;3.15;;;;;;;;;;6172101;23;20012;-95
2023/04/27 06:53:02;;;;;;;9.10;3.15;;;;;;;;;;6223162;23;20012;-95
2023/04/27 06:55:28;;;;;;;9.68;3.00;;;;;;;;;;6176626;23;20331;-96
2023/04/27 06:57:55;;;;;;;5.60;3.05;;;;;;;;;;6195403;23;20000;-95
2023/04/27 07:00:21;;;;;;;5.20;2.60;;;;;;;;;;6175933;23;20056;-95
2023/04/27 07:02:47;;;;;;;7.80;2.67;;;;;;;;;;6200693;23;20007;-94
2023/04/27 07:05:14;;;;;;;4.65;3.10;;;;;;;;;;6175204;23;20064;-94
2023/04/27 07:07:43;;;;;;;6.13;2.55;;;;;;;;;;6199448;23;20355;-94
2023/04/27 07:10:09;;;;;;;5.38;2.40;;;;;;;;;;6176631;23;20474;-94
2023/04/27 07:12:36;;;;;;;6.13;2.20;;;;;;;;;;6202346;23;20004;-94
2023/04/27 07:15:05;;;;;;;5.15;1.85;;;;;;;;;;6191804;22;20016;-95
2023/04/27 07:17:32;;;;;;;2.97;1.80;;;;;;;;;;6199712;23;20020;-95
2023/04/27 07:19:59;;;;;;;5.80;1.95;;;;;;;;;;6176814;23;20017;-95
2023/04/27 07:22:25;;;;;;;3.13;1.90;;;;;;;;;;6172698;23;20009;-95
2023/04/27 07:24:53;;;;;;;4.32;1.63;;;;;;;;;;6198654;23;20049;-94
2023/04/27 07:27:19;;;;;;;3.47;1.50;;;;;;;;;;6172599;23;20019;-95
2023/04/27 07:29:46;;;;;;;7.95;2.15;;;;;;;;;;6172405;23;20017;-94
2023/04/27 07:32:12;;;;;;;4.70;1.98;;;;;;;;;;6198770;23;20060;-93
2023/04/27 07:34:38;;;;;;;2.60;1.25;;;;;;;;;;6170278;23;20027;-95
2023/04/27 07:37:04;;;;;;;5.90;1.67;;;;;;;;;;6167632;23;20020;-95
2023/04/27 07:39:30;;;;;;;6.90;1.90;;;;;;;;;;6166722;23;20016;-95
2023/04/27 07:42:01;;;;;;;5.25;2.03;;;;;;;;;;6165712;23;20020;-95
2023/04/27 07:44:29;;;;;;;3.25;1.48;;;;;;;;;;6166412;23;20191;-96
2023/04/27 07:46:57;;;;;;;13.85;2.15;;;;;;;;;;6191009;23;20039;-95
2023/04/27 07:49:24;;;;;;;3.42;1.67;;;;;;;;;;6167169;23;20017;-94
2023/04/27 07:51:54;;;;;;;3.40;2.15;;;;;;;;;;6169145;23;20021;-95
2023/04/27 07:54:20;;;;;;;7.82;1.98;;;;;;;;;;6192175;23;20016;-95
2023/04/27 07:56:46;;;;;;;4.20;1.80;;;;;;;;;;6168694;23;20557;-95
2023/04/27 07:59:14;;;;;;;5.10;2.00;;;;;;;;;;6191575;23;20415;-95
2023/04/27 08:01:40;;;;;;;3.28;1.70;;;;;;;;;;6166056;23;20009;-95
2023/04/27 08:04:07;;;;;;;3.97;1.52;;;;;;;;;;6169410;23;20013;-95
2023/04/27 08:09:38;;;;;;;2.92;1.60;;;;;;;;;;6190596;23;20047;-95
2023/04/27 08:12:22;;;;;;;6.55;1.90;;;;;;;;;;6166252;23;20466;-95
2023/04/27 08:14:48;;;;;;;6.30;2.55;;;;;;;;;;6195454;22;20663;-95
2023/04/27 08:17:23;;;;;;;7.75;1.92;;;;;;;;;;6165488;23;20084;-94
2023/04/27 08:19:55;;;;;;;6.75;1.63;;;;;;;;;;6166659;23;20012;-95
2023/04/27 08:22:23;;;;;;;3.03;1.60;;;;;;;;;;6192762;23;20001;-95
2023/04/27 08:24:49;;;;;;;3.13;2.10;;;;;;;;;;6168303;23;20009;-94
2023/04/27 08:27:21;;;;;;;2.88;1.40;;;;;;;;;;6169832;23;20035;-94
2023/04/27 08:29:48;;;;;;;4.32;1.55;;;;;;;;;;6192128;23;20097;-94
2023/04/27 08:32:16;;;;;;;3.15;1.70;;;;;;;;;;6194803;23;20013;-96
2023/04/27 08:34:45;;;;;;;2.35;1.42;;;;;;;;;;6189848;23;20013;-96
2023/04/27 08:37:11;;;;;;;5.28;2.03;;;;;;;;;;6168286;23;20001;-94
2023/04/27 08:39:38;;;;;;;7.45;1.90;;;;;;;;;;6168568;23;20005;-96
2023/04/27 08:42:12;;;;;;;2.47;1.75;;;;;;;;;;6197301;23;20147;-95
2023/04/27 08:44:45;;;;;;;8.10;2.00;;;;;;;;;;6184185;23;20057;-95
2023/04/27 08:47:11;;;;;;;11.15;2.08;;;;;;;;;;6166335;23;20013;-95
2023/04/27 08:49:44;;;;;;;4.57;2.15;;;;;;;;;;6192748;23;20009;-96
2023/04/27 08:52:11;;;;;;;5.30;2.05;;;;;;;;;;6169736;23;20029;-95
2023/04/27 08:54:41;;;;;;;6.00;1.80;;;;;;;;;;6193212;23;20782;-95
2023/04/27 08:57:15;;;;;;;4.00;1.63;;;;;;;;;;6168815;23;20091;-95
2023/04/27 08:59:44;;;;;;;5.72;2.25;;;;;;;;;;6193340;23;20055;-95
2023/04/27 09:02:23;;;;;;;6.50;1.95;;;;;;;;;;6169350;23;20025;-95
2023/04/27 09:04:55;;;;;;;8.02;2.40;;;;;;;;;;6173454;23;20040;-96
2023/04/27 09:07:22;;;;;;;6.10;2.10;;;;;;;;;;6195194;23;20013;-95
2023/04/27 09:09:51;;;;;;;5.18;2.20;;;;;;;;;;6172001;23;20012;-95
2023/04/27 09:12:33;;;;;;;6.03;2.35;;;;;;;;;;6172683;23;20072;-95
2023/04/27 09:15:07;;;;;;;5.93;2.35;;;;;;;;;;6201848;22;20031;-94
2023/04/27 09:17:38;;;;;;;2.80;2.15;;;;;;;;;;6197385;23;19993;-96
2023/04/27 09:20:12;;;;;;;3.63;2.00;;;;;;;;;;6199209;23;20033;-95
2023/04/27 09:25:35;;;;;;;;;;;;;;;;;;6198756;23;20071;-95
2023/04/27 09:28:04;;;;;;;5.43;2.45;;;;;;;;;;6172418;23;19904;-96
2023/04/27 09:30:35;;;;;;;3.17;2.10;;;;;;;;;;6172632;23;20013;-95
2023/04/27 09:33:02;;;;;;;12.73;5.10;;;;;;;;;;6198139;23;20005;-96
2023/04/27 09:35:30;;;;;;;6.63;3.40;;;;;;;;;;6170545;23;20025;-96
2023/04/27 09:37:56;;;;;;;6.65;2.95;;;;;;;;;;6172803;23;20062;-96
2023/04/27 09:41:07;;;;;;;4.90;2.47;;;;;;;;;;6195965;23;20009;-96
2023/04/27 09:43:46;;;;;;;;;;;;;;;;;;;;;
2023/04/27 09:46:13;;;;;;;11.60;3.70;;;;;;;;;;6198095;23;20009;-95
2023/04/27 09:48:40;;;;;;;7.95;3.28;;;;;;;;;;6206388;23;20004;-95
2023/04/27 09:51:07;;;;;;;5.93;2.95;;;;;;;;;;6178919;23;20013;-96
2023/04/27 09:53:35;;;;;;;6.53;3.45;;;;;;;;;;6205538;23;20449;-95
2023/04/27 09:56:16;;;;;;;7.22;3.10;;;;;;;;;;6204062;23;20044;-95
2023/04/27 09:59:01;;;;;;;7.07;3.13;;;;;;;;;;6201973;23;20064;-95
2023/04/27 10:01:46;;;;;;;10.27;3.13;;;;;;;;;;6201079;23;20005;-96
2023/04/27 10:04:15;;;;;;;6.10;3.08;;;;;;;;;;6196680;23;20001;-95
2023/04/27 10:07:11;;;;;;;5.88;2.80;;;;;;;;;;6195281;23;20005;-96
2023/04/27 10:09:40;;;;;;;10.15;4.00;;;;;;;;;;6191452;23;20394;-96
2023/04/27 10:12:35;;;;;;;7.95;3.42;;;;;;;;;;6192969;23;20013;-96
2023/04/27 10:15:12;;;;;;;15.43;3.65;;;;;;;;;;6194433;22;20123;-95
2023/04/27 10:17:40;;;;;;;7.63;3.42;;;;;;;;;;6186966;23;20450;-95
2023/04/27 10:20:12;;;;;;;7.43;3.45;;;;;;;;;;6190849;23;20047;-95
2023/04/27 10:22:41;;;;;;;11.55;4.25;;;;;;;;;;6167049;23;20017;-96
2023/04/27 10:25:21;;;;;;;8.48;4.30;;;;;;;;;;6190818;23;20028;-95
2023/04/27 10:27:57;;;;;;;7.80;4.00;;;;;;;;;;6190620;23;20008;-96
2023/04/27 10:30:23;;;;;;;;;;;;;;;;;;6191963;23;20004;-96
2023/04/27 10:32:56;;;;;;;7.20;3.65;;;;;;;;;;6166678;23;19900;-96
2023/04/27 10:35:31;;;;;;;11.73;4.03;;;;;;;;;;6167325;23;20016;-96
2023/04/27 10:38:20;;;;;;;7.57;3.80;;;;;;;;;;6193312;23;20017;-96
2023/04/27 10:41:06;;;;;;;9.43;3.63;;;;;;;;;;6124607;23;20025;-96
2023/04/27 10:43:34;;;;;;;12.18;4.10;;;;;;;;;;6188425;23;20008;-96
2023/04/27 10:46:10;;;;;;;6.75;3.28;;;;;;;;;;6191869;23;20331;-96
2023/04/27 10:48:40;;;;;;;13.25;4.60;;;;;;;;;;6192667;23;20009;-95
2023/04/27 10:51:08;;;;;;;7.03;3.78;;;;;;;;;;6189779;23;20009;-96
2023/04/27 10:53:51;;;;;;;7.25;4.05;;;;;;;;;;6166397;23;20017;-96
2023/04/27 10:56:20;;;;;;;10.30;3.83;;;;;;;;;;6195196;23;20057;-96
2023/04/27 10:58:55;;;;;;;9.10;3.60;;;;;;;;;;6168310;23;20008;-96
2023/04/27 11:01:28;;;;;;;8.95;3.92;;;;;;;;;;6193739;23;20001;-96
2023/04/27 11:04:02;;;;;;;6.35;3.63;;;;;;;;;;6195466;23;20009;-96
2023/04/27 11:06:49;;;;;;;7.18;3.75;;;;;;;;;;6189255;23;20340;-96
2023/04/27 11:09:26;;;;;;;8.38;3.88;;;;;;;;;;6192644;23;20032;-96
2023/04/27 11:11:55;;;;;;;11.07;4.18;;;;;;;;;;6194986;23;20005;-96
2023/04/27 11:14:21;;;;;;;10.82;4.07;;;;;;;;;;6193413;22;20013;-96
2023/04/27 11:16:51;;;;;;;8.38;4.00;;;;;;;;;;6195284;23;20013;-95
2023/04/27 11:19:17;;;;;;;9.95;5.38;;;;;;;;;;6167664;23;20439;-94
2023/04/27 11:21:53;;;;;;;13.15;4.50;;;;;;;;;;6220915;23;20004;-96
2023/04/27 11:24:21;;;;;;;8.15;4.28;;;;;;;;;;6192324;23;20012;-95
2023/04/27 11:26:52;;;;;;;6.30;3.92;;;;;;;;;;6169181;23;20013;-95
2023/04/27 11:29:18;;;;;;;8.43;4.07;;;;;;;;;;6194229;23;20009;-95
2023/04/27 11:34:48;;;;;;;9.45;4.32;;;;;;;;;;6173723;23;20361;-95
2023/04/27 11:37:23;;;;;;;12.63;4.53;;;;;;;;;;6195769;23;20390;-95
2023/04/27 11:42:36;;;;;;;6.00;4.07;;;;;;;;;;6200255;23;20023;-95
2023/04/27 11:45:10;;;;;;;11.15;4.57;;;;;;;;;;6196966;23;20411;-95
2023/04/27 11:47:41;;;;;;;9.05;3.88;;;;;;;;;;6197619;23;20024;-95
2023/04/27 11:50:21;;;;;;;9.02;4.03;;;;;;;;;;6197429;23;20008;-95
2023/04/27 11:52:51;;;;;;;10.68;4.28;;;;;;;;;;6175096;23;20025;-96
2023/04/27 11:55:28;;;;;;;14.18;4.93;;;;;;;;;;6176113;23;20016;-95
2023/04/27 11:57:58;;;;;;;12.38;4.30;;;;;;;;;;6221514;23;20290;-96
2023/04/27 12:00:27;;;;;;;12.65;5.63;;;;;;;;;;6164978;23;20091;-96
2023/04/27 12:03:00;;;;;;;12.52;4.88;;;;;;;;;;6166255;23;20004;-96
2023/04/27 12:05:47;;;;;;;6.97;4.28;;;;;;;;;;6168801;23;20455;-96
2023/04/27 12:08:13;;;;;;;6.93;4.30;;;;;;;;;;6196680;23;20008;-95
2023/04/27 12:10:42;;;;;;;7.95;3.95;;;;;;;;;;6221956;23;20083;-95
2023/04/27 12:13:11;;;;;;;9.75;4.07;;;;;;;;;;6167314;23;20009;-95
2023/04/27 12:15:37;;;;;;;8.63;3.63;;;;;;;;;;6169761;23;20027;-95
2023/04/27 12:18:04;;;;;;;5.53;3.88;;;;;;;;;;6164676;23;20008;-94
2023/04/27 12:20:39;;;;;;;8.77;3.40;;;;;;;;;;6192749;23;20004;-94
2023/04/27 12:23:09;;;;;;;6.93;4.03;;;;;;;;;;6191874;23;20374;-95
2023/04/27 12:25:35;;;;;;;9.40;3.95;;;;;;;;;;6188474;23;20092;-95
2023/04/27 12:28:02;;;;;;;13.63;4.82;;;;;;;;;;6166888;23;20013;-95
2023/04/27 12:30:28;;;;;;;6.90;3.78;;;;;;;;;;6164921;23;20355;-95
2023/04/27 12:33:08;;;;;;;7.28;3.90;;;;;;;;;;6166607;23;20013;-94
2023/04/27 12:35:39;;;;;;;7.95;3.40;;;;;;;;;;6220231;23;20009;-95
2023/04/27 12:38:05;;;;;;;7.88;3.70;;;;;;;;;;6194642;23;20087;-95
2023/04/27 12:40:37;;;;;;;9.52;3.10;;;;;;;;;;6166146;23;20511;-96
2023/04/27 12:43:03;;;;;;;7.72;4.15;;;;;;;;;;6195356;23;20031;-95
2023/04/27 12:45:49;;;;;;;4.32;2.85;;;;;;;;;;6173093;23;20001;-95
2023/04/27 12:48:33;;;;;;;6.93;3.20;;;;;;;;;;6195657;23;20000;-96
2023/04/27 12:50:59;;;;;;;6.45;2.78;;;;;;;;;;6171138;23;20051;-95
2023/04/27 12:53:25;;;;;;;9.32;3.38;;;;;;;;;;6168571;23;20009;-95
2023/04/27 12:55:52;;;;;;;7.15;3.13;;;;;;;;;;6196110;23;20004;-95
2023/04/27 12:58:18;;;;;;;8.50;3.22;;;;;;;;;;6167950;23;20004;-96
2023/04/27 13:00:46;;;;;;;5.95;3.13;;;;;;;;;;6172260;23;20000;-96
2023/04/27 13:03:12;;;;;;;5.60;3.28;;;;;;;;;;6174862;23;20004;-95
2023/04/27 13:05:39;;;;;;;5.47;3.00;;;;;;;;;;6172303;23;20019;-96
2023/04/27 13:08:08;;;;;;;8.43;3.25;;;;;;;;;;6170210;23;20507;-96
2023/04/27 13:10:37;;;;;;;4.45;2.70;;;;;;;;;;6198080;23;20011;-96
2023/04/27 13:13:09;;;;;;;11.32;2.70;;;;;;;;;;6171268;23;20014;-95
2023/04/27 13:15:36;;;;;;;5.25;3.30;;;;;;;;;;6183583;22;20021;-96
2023/04/27 13:18:05;;;;;;;6.10;2.97;;;;;;;;;;6159867;23;20020;-96
2023/04/27 13:20:31;;;;;;;8.20;3.58;;;;;;;;;;6190086;23;20005;-96
2023/04/27 13:22:57;;;;;;;4.95;3.20;;;;;;;;;;6190396;23;20001;-95
2023/04/27 13:25:23;;;;;;;6.47;3.25;;;;;;;;;;6186217;23;20009;-96
2023/04/27 13:27:52;;;;;;;6.50;3.47;;;;;;;;;;6162998;23;20394;-96
2023/04/27 13:30:19;;;;;;;6.65;3.38;;;;;;;;;;6186937;23;20024;-96
2023/04/27 13:32:45;;;;;;;6.78;3.42;;;;;;;;;;6161867;23;20017;-96
2023/04/27 13:35:13;;;;;;;7.13;3.15;;;;;;;;;;6189073;23;20032;-96
2023/04/27 13:37:41;;;;;;;8.35;4.70;;;;;;;;;;6165873;23;20043;-95
2023/04/27 13:40:09;;;;;;;7.18;3.33;;;;;;;;;;6198725;23;20000;-95
2023/04/27 13:42:36;;;;;;;9.20;5.00;;;;;;;;;;6172069;23;20013;-95
2023/04/27 13:45:06;;;;;;;13.35;4.20;;;;;;;;;;6196567;23;20407;-94
2023/04/27 13:47:36;;;;;;;6.28;3.95;;;;;;;;;;6196792;23;20017;-96
2023/04/27 13:50:12;;;;;;;7.63;4.88;;;;;;;;;;6167805;23;20008;-95
2023/04/27 13:52:41;;;;;;;5.15;3.20;;;;;;;;;;6192001;23;20009;-96
2023/04/27 13:55:09;;;;;;;10.13;3.20;;;;;;;;;;6190505;23;20067;-95
2023/04/27 13:57:38;;;;;;;5.65;3.08;;;;;;;;;;6188097;23;20029;-95
2023/04/27 14:00:10;;;;;;;5.97;3.92;;;;;;;;;;6188786;23;20912;-95
2023/04/27 14:02:36;;;;;;;6.68;4.05;;;;;;;;;;6163128;23;20005;-95
2023/04/27 14:05:09;;;;;;;7.75;3.63;;;;;;;;;;6163396;23;20361;-95
2023/04/27 14:07:36;;;;;;;5.90;3.88;;;;;;;;;;6187487;23;20486;-95
2023/04/27 14:10:04;;;;;;;11.07;3.90;;;;;;;;;;6188752;23;20068;-95
2023/04/27 14:12:31;;;;;;;6.22;3.80;;;;;;;;;;6191095;23;20013;-96
2023/04/27 14:14:59;;;;;;;8.90;4.07;;;;;;;;;;6199875;22;20016;-94
2023/04/27 14:17:25;;;;;;;8.63;3.72;;;;;;;;;;6203908;23;20064;-96
2023/04/27 14:20:05;;;;;;;9.98;4.13;;;;;;;;;;6204342;23;20051;-96
2023/04/27 14:22:33;;;;;;;12.27;4.78;;;;;;;;;;6203198;23;20084;-95
2023/04/27 14:25:04;;;;;;;10.52;4.45;;;;;;;;;;6204610;23;20671;-96
2023/04/27 14:27:39;;;;;;;8.30;4.55;;;;;;;;;;6178581;23;20231;-96
2023/04/27 14:30:06;;;;;;;7.53;3.88;;;;;;;;;;6207180;23;20019;-96
2023/04/27 14:32:43;;;;;;;8.57;5.25;;;;;;;;;;6209025;23;20012;-95
2023/04/27 14:35:11;;;;;;;8.35;4.20;;;;;;;;;;6205275;23;20213;-96
2023/04/27 14:37:39;;;;;;;8.60;3.85;;;;;;;;;;6179790;23;20020;-95
2023/04/27 14:40:06;;;;;;;14.07;3.90;;;;;;;;;;6194640;23;20000;-94
2023/04/27 14:42:32;;;;;;;14.07;4.25;;;;;;;;;;6196360;23;20016;-95
2023/04/27 14:45:04;;;;;;;8.35;4.20;;;;;;;;;;6168107;23;20395;-96
2023/04/27 14:47:30;;;;;;;7.80;3.40;;;;;;;;;;6169816;23;20502;-95
2023/04/27 14:49:57;;;;;;;8.98;4.47;;;;;;;;;;6192830;23;20394;-96
2023/04/27 14:52:26;;;;;;;8.68;4.22;;;;;;;;;;6168957;23;20036;-96
2023/04/27 14:54:58;;;;;;;8.73;4.50;;;;;;;;;;6191240;23;20406;-96
2023/04/27 14:57:26;;;;;;;7.95;3.72;;;;;;;;;;6191136;23;20005;-96
2023/04/27 14:59:52;;;;;;;7.78;3.42;;;;;;;;;;6191442;23;20005;-96
2023/04/27 15:02:25;;;;;;;8.05;3.38;;;;;;;;;;6168483;23;20099;-96
2023/04/27 15:04:51;;;;;;;13.18;4.07;;;;;;;;;;6192201;23;20001;-96
2023/04/27 15:07:20;;;;;;;5.90;3.60;;;;;;;;;;6192713;23;20004;-96
2023/04/27 15:09:51;;;;;;;9.23;4.20;;;;;;;;;;6168692;23;20012;-96